sensor_id;sensor_type;location;lat;lon;timestamp;temperature;humidity
21759;DHT22;11041;50.854;20.580;2023-03-24T00:01:29;14.30;99.90
21759;DHT22;11041;50.854;20.580;2023-03-24T00:03:55;14.30;99.90
21759;DHT22;11041;50.854;20.580;2023-03-24T00:06:22;14.30;99.90
21759;DHT22;11041;50.854;20.580;2023-03-24T00:08:48;14.30;99.90
21759;DHT22;11041;50.854;20.580;2023-03-24T00:11:15;14.20;99.90
21759;DHT22;11041;50.854;20.580;2023-03-24T00:13:44;14.50;99.90
21759;DHT22;11041;50.854;20.580;2023-03-24T00:16:13;14.20;99.90
21759;DHT22;11041;50.854;20.580;2023-03-24T00:18:42;14.20;99.90
21759;DHT22;11041;50.854;20.580;2023-03-24T00:21:08;14.20;99.90
21759;DHT22;11041;50.854;20.580;2023-03-24T00:23:37;14.20;99.90
21759;DHT22;11041;50.854;20.580;2023-03-24T00:26:11;14.10;99.90
21759;DHT22;11041;50.854;20.580;2023-03-24T00:28:42;14.10;99.90
21759;DHT22;11041;50.854;20.580;2023-03-24T00:31:11;14.10;99.90
21759;DHT22;11041;50.854;20.580;2023-03-24T00:33:43;14.00;99.90
21759;DHT22;11041;50.854;20.580;2023-03-24T00:36:15;14.00;99.90
21759;DHT22;11041;50.854;20.580;2023-03-24T00:38:46;14.00;99.90
21759;DHT22;11041;50.854;20.580;2023-03-24T00:41:13;13.90;99.90
21759;DHT22;11041;50.854;20.580;2023-03-24T00:43:42;13.90;99.90
21759;DHT22;11041;50.854;20.580;2023-03-24T00:46:14;13.80;99.90
21759;DHT22;11041;50.854;20.580;2023-03-24T00:49:03;13.80;99.90
21759;DHT22;11041;50.854;20.580;2023-03-24T00:51:37;13.80;99.90
21759;DHT22;11041;50.854;20.580;2023-03-24T00:54:07;13.70;99.90
21759;DHT22;11041;50.854;20.580;2023-03-24T00:56:37;13.70;99.90
21759;DHT22;11041;50.854;20.580;2023-03-24T00:59:05;13.60;99.90
21759;DHT22;11041;50.854;20.580;2023-03-24T01:01:34;13.60;99.90
21759;DHT22;11041;50.854;20.580;2023-03-24T01:04:03;13.50;99.90
21759;DHT22;11041;50.854;20.580;2023-03-24T01:06:30;13.50;99.90
21759;DHT22;11041;50.854;20.580;2023-03-24T01:08:58;13.50;99.90
21759;DHT22;11041;50.854;20.580;2023-03-24T01:11:25;13.40;99.90
21759;DHT22;11041;50.854;20.580;2023-03-24T01:13:53;13.30;99.90
21759;DHT22;11041;50.854;20.580;2023-03-24T01:16:20;13.20;99.90
21759;DHT22;11041;50.854;20.580;2023-03-24T01:18:51;13.00;99.90
21759;DHT22;11041;50.854;20.580;2023-03-24T01:21:18;12.90;99.90
21759;DHT22;11041;50.854;20.580;2023-03-24T01:23:44;12.80;99.90
21759;DHT22;11041;50.854;20.580;2023-03-24T01:26:11;12.60;99.90
21759;DHT22;11041;50.854;20.580;2023-03-24T01:28:37;12.50;99.90
21759;DHT22;11041;50.854;20.580;2023-03-24T01:31:09;12.40;99.90
21759;DHT22;11041;50.854;20.580;2023-03-24T01:33:37;12.30;99.90
21759;DHT22;11041;50.854;20.580;2023-03-24T01:36:05;12.10;99.90
21759;DHT22;11041;50.854;20.580;2023-03-24T01:38:32;12.10;99.90
21759;DHT22;11041;50.854;20.580;2023-03-24T01:40:59;12.00;99.90
21759;DHT22;11041;50.854;20.580;2023-03-24T01:43:28;11.80;99.90
21759;DHT22;11041;50.854;20.580;2023-03-24T01:49:04;11.70;99.90
21759;DHT22;11041;50.854;20.580;2023-03-24T01:51:42;11.60;99.90
21759;DHT22;11041;50.854;20.580;2023-03-24T01:57:03;11.40;99.90
21759;DHT22;11041;50.854;20.580;2023-03-24T01:59:38;11.30;99.90
21759;DHT22;11041;50.854;20.580;2023-03-24T02:02:08;11.10;99.90
21759;DHT22;11041;50.854;20.580;2023-03-24T02:04:45;11.10;99.90
21759;DHT22;11041;50.854;20.580;2023-03-24T02:09:56;10.90;99.90
21759;DHT22;11041;50.854;20.580;2023-03-24T02:12:22;10.80;99.90
21759;DHT22;11041;50.854;20.580;2023-03-24T02:14:49;10.70;99.90
21759;DHT22;11041;50.854;20.580;2023-03-24T02:17:46;10.70;99.90
21759;DHT22;11041;50.854;20.580;2023-03-24T02:20:37;10.70;99.90
21759;DHT22;11041;50.854;20.580;2023-03-24T02:29:54;10.40;99.90
21759;DHT22;11041;50.854;20.580;2023-03-24T02:39:49;10.30;99.90
21759;DHT22;11041;50.854;20.580;2023-03-24T02:48:26;10.20;99.90
21759;DHT22;11041;50.854;20.580;2023-03-24T02:57:39;10.00;99.90
21759;DHT22;11041;50.854;20.580;2023-03-24T03:03:49;9.90;99.90
21759;DHT22;11041;50.854;20.580;2023-03-24T03:06:28;9.90;99.90
21759;DHT22;11041;50.854;20.580;2023-03-24T03:09:02;9.80;99.90
21759;DHT22;11041;50.854;20.580;2023-03-24T03:11:32;9.60;99.90
21759;DHT22;11041;50.854;20.580;2023-03-24T03:14:02;9.50;99.90
21759;DHT22;11041;50.854;20.580;2023-03-24T03:16:51;9.60;99.90
21759;DHT22;11041;50.854;20.580;2023-03-24T03:19:32;9.50;99.90
21759;DHT22;11041;50.854;20.580;2023-03-24T03:22:07;9.40;99.90
21759;DHT22;11041;50.854;20.580;2023-03-24T03:24:43;9.40;99.90
21759;DHT22;11041;50.854;20.580;2023-03-24T03:27:27;9.40;99.90
21759;DHT22;11041;50.854;20.580;2023-03-24T03:30:12;9.40;99.90
21759;DHT22;11041;50.854;20.580;2023-03-24T03:32:46;9.30;99.90
21759;DHT22;11041;50.854;20.580;2023-03-24T03:35:37;9.30;99.90
21759;DHT22;11041;50.854;20.580;2023-03-24T03:38:24;9.40;99.90
21759;DHT22;11041;50.854;20.580;2023-03-24T03:41:00;9.30;99.90
21759;DHT22;11041;50.854;20.580;2023-03-24T03:43:30;9.20;99.90
21759;DHT22;11041;50.854;20.580;2023-03-24T03:45:59;9.20;99.90
21759;DHT22;11041;50.854;20.580;2023-03-24T03:48:28;9.20;99.90
21759;DHT22;11041;50.854;20.580;2023-03-24T03:50:55;9.20;99.90
21759;DHT22;11041;50.854;20.580;2023-03-24T03:53:32;9.20;99.90
21759;DHT22;11041;50.854;20.580;2023-03-24T03:56:06;9.20;99.90
21759;DHT22;11041;50.854;20.580;2023-03-24T03:58:33;9.20;99.90
21759;DHT22;11041;50.854;20.580;2023-03-24T04:01:01;9.20;99.90
21759;DHT22;11041;50.854;20.580;2023-03-24T04:10:00;9.10;99.90
21759;DHT22;11041;50.854;20.580;2023-03-24T04:26:03;9.10;99.90
21759;DHT22;11041;50.854;20.580;2023-03-24T04:34:23;9.20;99.90
21759;DHT22;11041;50.854;20.580;2023-03-24T04:37:08;9.10;99.90
21759;DHT22;11041;50.854;20.580;2023-03-24T04:39:42;9.20;99.90
21759;DHT22;11041;50.854;20.580;2023-03-24T04:42:23;9.20;99.90
21759;DHT22;11041;50.854;20.580;2023-03-24T04:44:55;9.30;99.90
21759;DHT22;11041;50.854;20.580;2023-03-24T04:47:25;9.20;99.90
21759;DHT22;11041;50.854;20.580;2023-03-24T04:50:06;9.20;99.90
21759;DHT22;11041;50.854;20.580;2023-03-24T04:52:38;9.40;99.90
21759;DHT22;11041;50.854;20.580;2023-03-24T04:58:16;9.60;99.90
21759;DHT22;11041;50.854;20.580;2023-03-24T05:00:45;9.60;99.90
21759;DHT22;11041;50.854;20.580;2023-03-24T05:03:14;9.60;99.90
21759;DHT22;11041;50.854;20.580;2023-03-24T05:05:44;9.60;99.90
21759;DHT22;11041;50.854;20.580;2023-03-24T05:08:14;9.60;99.90
21759;DHT22;11041;50.854;20.580;2023-03-24T05:10:42;9.70;99.90
21759;DHT22;11041;50.854;20.580;2023-03-24T05:13:09;9.70;99.90
21759;DHT22;11041;50.854;20.580;2023-03-24T05:15:35;9.80;99.90
21759;DHT22;11041;50.854;20.580;2023-03-24T05:18:05;9.90;99.90
21759;DHT22;11041;50.854;20.580;2023-03-24T05:20:32;9.90;99.90
21759;DHT22;11041;50.854;20.580;2023-03-24T05:22:59;9.90;99.90
21759;DHT22;11041;50.854;20.580;2023-03-24T05:25:26;9.90;99.90
21759;DHT22;11041;50.854;20.580;2023-03-24T05:27:53;9.90;99.90
21759;DHT22;11041;50.854;20.580;2023-03-24T05:30:19;10.00;99.90
21759;DHT22;11041;50.854;20.580;2023-03-24T05:32:46;9.90;99.90
21759;DHT22;11041;50.854;20.580;2023-03-24T05:35:12;10.10;99.90
21759;DHT22;11041;50.854;20.580;2023-03-24T05:37:39;10.10;99.90
21759;DHT22;11041;50.854;20.580;2023-03-24T05:40:07;10.10;99.90
21759;DHT22;11041;50.854;20.580;2023-03-24T05:42:34;10.10;99.90
21759;DHT22;11041;50.854;20.580;2023-03-24T05:45:02;10.20;99.90
21759;DHT22;11041;50.854;20.580;2023-03-24T05:47:29;10.20;99.90
21759;DHT22;11041;50.854;20.580;2023-03-24T05:49:56;10.20;99.90
21759;DHT22;11041;50.854;20.580;2023-03-24T05:52:23;10.20;99.90
21759;DHT22;11041;50.854;20.580;2023-03-24T05:54:51;10.20;99.90
21759;DHT22;11041;50.854;20.580;2023-03-24T05:57:18;10.20;99.90
21759;DHT22;11041;50.854;20.580;2023-03-24T05:59:46;10.30;99.90
21759;DHT22;11041;50.854;20.580;2023-03-24T06:02:13;10.20;99.90
21759;DHT22;11041;50.854;20.580;2023-03-24T06:04:39;10.30;99.90
21759;DHT22;11041;50.854;20.580;2023-03-24T06:07:12;10.30;99.90
21759;DHT22;11041;50.854;20.580;2023-03-24T06:09:39;10.40;99.90
21759;DHT22;11041;50.854;20.580;2023-03-24T06:12:13;10.40;99.90
21759;DHT22;11041;50.854;20.580;2023-03-24T06:14:41;10.50;99.90
21759;DHT22;11041;50.854;20.580;2023-03-24T06:17:08;10.60;99.90
21759;DHT22;11041;50.854;20.580;2023-03-24T06:19:41;10.60;99.90
21759;DHT22;11041;50.854;20.580;2023-03-24T06:22:18;10.60;99.90
21759;DHT22;11041;50.854;20.580;2023-03-24T06:24:45;10.70;99.90
21759;DHT22;11041;50.854;20.580;2023-03-24T06:27:13;10.80;99.90
21759;DHT22;11041;50.854;20.580;2023-03-24T06:29:39;10.90;99.90
21759;DHT22;11041;50.854;20.580;2023-03-24T06:32:10;10.90;99.90
21759;DHT22;11041;50.854;20.580;2023-03-24T06:34:36;11.00;99.90
21759;DHT22;11041;50.854;20.580;2023-03-24T06:37:04;11.00;99.90
21759;DHT22;11041;50.854;20.580;2023-03-24T06:39:30;11.10;99.90
21759;DHT22;11041;50.854;20.580;2023-03-24T06:41:56;11.10;99.90
21759;DHT22;11041;50.854;20.580;2023-03-24T06:44:23;11.20;99.90
21759;DHT22;11041;50.854;20.580;2023-03-24T06:46:49;11.30;99.90
21759;DHT22;11041;50.854;20.580;2023-03-24T06:49:16;11.40;99.90
21759;DHT22;11041;50.854;20.580;2023-03-24T06:51:43;11.50;99.90
21759;DHT22;11041;50.854;20.580;2023-03-24T06:54:09;11.60;99.90
21759;DHT22;11041;50.854;20.580;2023-03-24T06:56:36;11.70;99.90
21759;DHT22;11041;50.854;20.580;2023-03-24T06:59:02;11.70;99.90
21759;DHT22;11041;50.854;20.580;2023-03-24T07:01:29;11.80;99.90
21759;DHT22;11041;50.854;20.580;2023-03-24T07:03:56;11.90;99.90
21759;DHT22;11041;50.854;20.580;2023-03-24T07:06:22;12.00;99.90
21759;DHT22;11041;50.854;20.580;2023-03-24T07:08:49;12.00;99.90
21759;DHT22;11041;50.854;20.580;2023-03-24T07:11:16;12.20;99.90
21759;DHT22;11041;50.854;20.580;2023-03-24T07:13:42;12.20;99.90
21759;DHT22;11041;50.854;20.580;2023-03-24T07:16:09;12.30;99.90
21759;DHT22;11041;50.854;20.580;2023-03-24T07:18:36;12.40;99.90
21759;DHT22;11041;50.854;20.580;2023-03-24T07:21:03;12.40;99.90
21759;DHT22;11041;50.854;20.580;2023-03-24T07:23:30;12.50;99.90
21759;DHT22;11041;50.854;20.580;2023-03-24T07:25:58;12.60;99.90
21759;DHT22;11041;50.854;20.580;2023-03-24T07:28:26;12.60;99.90
21759;DHT22;11041;50.854;20.580;2023-03-24T07:30:52;12.60;99.90
21759;DHT22;11041;50.854;20.580;2023-03-24T07:33:19;12.60;99.90
21759;DHT22;11041;50.854;20.580;2023-03-24T07:35:45;12.60;99.90
21759;DHT22;11041;50.854;20.580;2023-03-24T07:38:12;12.50;99.90
21759;DHT22;11041;50.854;20.580;2023-03-24T07:40:39;12.60;99.90
21759;DHT22;11041;50.854;20.580;2023-03-24T07:43:05;12.70;99.90
21759;DHT22;11041;50.854;20.580;2023-03-24T07:45:32;12.70;99.90
21759;DHT22;11041;50.854;20.580;2023-03-24T07:47:59;12.80;99.90
21759;DHT22;11041;50.854;20.580;2023-03-24T07:50:28;12.80;99.90
21759;DHT22;11041;50.854;20.580;2023-03-24T07:52:56;12.80;99.90
21759;DHT22;11041;50.854;20.580;2023-03-24T07:55:23;12.90;99.90
21759;DHT22;11041;50.854;20.580;2023-03-24T07:57:50;13.00;99.90
21759;DHT22;11041;50.854;20.580;2023-03-24T08:00:18;13.00;99.90
21759;DHT22;11041;50.854;20.580;2023-03-24T08:02:46;13.10;99.90
21759;DHT22;11041;50.854;20.580;2023-03-24T08:05:15;13.20;99.90
21759;DHT22;11041;50.854;20.580;2023-03-24T08:07:46;13.20;99.90
21759;DHT22;11041;50.854;20.580;2023-03-24T08:10:22;13.30;99.90
21759;DHT22;11041;50.854;20.580;2023-03-24T08:12:50;13.30;99.90
21759;DHT22;11041;50.854;20.580;2023-03-24T08:15:18;13.40;99.90
21759;DHT22;11041;50.854;20.580;2023-03-24T08:17:44;13.50;99.90
21759;DHT22;11041;50.854;20.580;2023-03-24T08:20:13;13.60;99.90
21759;DHT22;11041;50.854;20.580;2023-03-24T08:22:46;13.80;99.90
21759;DHT22;11041;50.854;20.580;2023-03-24T08:25:17;14.00;99.90
21759;DHT22;11041;50.854;20.580;2023-03-24T08:27:45;14.10;99.90
21759;DHT22;11041;50.854;20.580;2023-03-24T08:30:16;14.30;99.90
21759;DHT22;11041;50.854;20.580;2023-03-24T08:32:48;14.50;99.90
21759;DHT22;11041;50.854;20.580;2023-03-24T08:35:28;14.60;99.90
21759;DHT22;11041;50.854;20.580;2023-03-24T08:37:56;14.80;99.90
21759;DHT22;11041;50.854;20.580;2023-03-24T08:40:38;14.90;99.90
21759;DHT22;11041;50.854;20.580;2023-03-24T08:43:07;15.10;99.90
21759;DHT22;11041;50.854;20.580;2023-03-24T08:45:38;15.40;99.90
21759;DHT22;11041;50.854;20.580;2023-03-24T08:48:06;15.40;99.90
21759;DHT22;11041;50.854;20.580;2023-03-24T08:50:36;15.40;99.90
21759;DHT22;11041;50.854;20.580;2023-03-24T08:53:06;15.50;99.90
21759;DHT22;11041;50.854;20.580;2023-03-24T08:55:33;15.60;99.90
21759;DHT22;11041;50.854;20.580;2023-03-24T08:58:02;15.60;99.90
21759;DHT22;11041;50.854;20.580;2023-03-24T09:00:28;15.70;99.90
21759;DHT22;11041;50.854;20.580;2023-03-24T09:02:55;15.80;99.90
21759;DHT22;11041;50.854;20.580;2023-03-24T09:05:23;15.70;99.90
21759;DHT22;11041;50.854;20.580;2023-03-24T09:07:50;15.80;99.90
21759;DHT22;11041;50.854;20.580;2023-03-24T09:10:18;15.90;99.90
21759;DHT22;11041;50.854;20.580;2023-03-24T09:12:45;15.80;99.90
21759;DHT22;11041;50.854;20.580;2023-03-24T09:15:12;15.90;99.90
21759;DHT22;11041;50.854;20.580;2023-03-24T09:17:39;15.90;99.90
21759;DHT22;11041;50.854;20.580;2023-03-24T09:20:09;15.90;99.90
21759;DHT22;11041;50.854;20.580;2023-03-24T09:22:41;16.00;99.90
21759;DHT22;11041;50.854;20.580;2023-03-24T09:25:12;15.80;99.90
21759;DHT22;11041;50.854;20.580;2023-03-24T09:27:41;15.90;99.90
21759;DHT22;11041;50.854;20.580;2023-03-24T09:30:09;16.00;99.90
21759;DHT22;11041;50.854;20.580;2023-03-24T09:32:38;16.10;99.90
21759;DHT22;11041;50.854;20.580;2023-03-24T09:35:05;16.30;99.90
21759;DHT22;11041;50.854;20.580;2023-03-24T09:37:34;16.50;99.90
21759;DHT22;11041;50.854;20.580;2023-03-24T09:40:04;16.60;99.90
21759;DHT22;11041;50.854;20.580;2023-03-24T09:42:36;16.70;99.90
21759;DHT22;11041;50.854;20.580;2023-03-24T09:45:14;16.70;99.90
21759;DHT22;11041;50.854;20.580;2023-03-24T09:50:54;17.00;99.90
21759;DHT22;11041;50.854;20.580;2023-03-24T09:56:36;17.30;99.90
21759;DHT22;11041;50.854;20.580;2023-03-24T09:59:25;17.40;99.90
21759;DHT22;11041;50.854;20.580;2023-03-24T10:02:10;17.50;99.90
21759;DHT22;11041;50.854;20.580;2023-03-24T10:04:38;17.60;99.90
21759;DHT22;11041;50.854;20.580;2023-03-24T10:07:12;17.80;99.90
21759;DHT22;11041;50.854;20.580;2023-03-24T10:10:00;18.00;99.90
21759;DHT22;11041;50.854;20.580;2023-03-24T10:12:39;18.10;99.90
21759;DHT22;11041;50.854;20.580;2023-03-24T10:17:51;18.60;99.90
21759;DHT22;11041;50.854;20.580;2023-03-24T10:23:44;18.60;99.90
21759;DHT22;11041;50.854;20.580;2023-03-24T10:26:38;18.60;99.90
21759;DHT22;11041;50.854;20.580;2023-03-24T10:32:11;18.60;99.90
21759;DHT22;11041;50.854;20.580;2023-03-24T10:34:49;18.70;99.90
21759;DHT22;11041;50.854;20.580;2023-03-24T10:37:20;18.70;99.90
21759;DHT22;11041;50.854;20.580;2023-03-24T10:39:47;18.70;99.90
21759;DHT22;11041;50.854;20.580;2023-03-24T10:42:23;18.60;99.90
21759;DHT22;11041;50.854;20.580;2023-03-24T10:44:51;18.70;99.90
21759;DHT22;11041;50.854;20.580;2023-03-24T10:47:23;18.70;99.90
21759;DHT22;11041;50.854;20.580;2023-03-24T10:50:00;18.60;99.90
21759;DHT22;11041;50.854;20.580;2023-03-24T10:52:38;18.60;99.90
21759;DHT22;11041;50.854;20.580;2023-03-24T10:55:06;18.50;99.90
21759;DHT22;11041;50.854;20.580;2023-03-24T10:57:42;18.70;99.90
21759;DHT22;11041;50.854;20.580;2023-03-24T11:00:30;18.80;99.90
21759;DHT22;11041;50.854;20.580;2023-03-24T11:03:09;18.80;99.90
21759;DHT22;11041;50.854;20.580;2023-03-24T11:05:40;18.90;99.90
21759;DHT22;11041;50.854;20.580;2023-03-24T11:11:34;19.10;99.90
21759;DHT22;11041;50.854;20.580;2023-03-24T11:14:02;19.30;99.90
21759;DHT22;11041;50.854;20.580;2023-03-24T11:16:37;19.40;99.90
21759;DHT22;11041;50.854;20.580;2023-03-24T11:19:26;19.40;99.90
21759;DHT22;11041;50.854;20.580;2023-03-24T11:21:58;19.40;99.90
21759;DHT22;11041;50.854;20.580;2023-03-24T11:24:29;19.50;99.90
21759;DHT22;11041;50.854;20.580;2023-03-24T11:27:01;19.50;99.90
21759;DHT22;11041;50.854;20.580;2023-03-24T11:29:30;19.60;99.90
21759;DHT22;11041;50.854;20.580;2023-03-24T11:32:01;19.50;99.90
21759;DHT22;11041;50.854;20.580;2023-03-24T11:34:32;19.40;99.90
21759;DHT22;11041;50.854;20.580;2023-03-24T11:37:12;19.50;99.90
21759;DHT22;11041;50.854;20.580;2023-03-24T11:43:10;19.40;99.90
21759;DHT22;11041;50.854;20.580;2023-03-24T11:48:54;19.40;99.90
21759;DHT22;11041;50.854;20.580;2023-03-24T11:51:38;19.50;99.90
21759;DHT22;11041;50.854;20.580;2023-03-24T11:54:18;19.50;99.90
21759;DHT22;11041;50.854;20.580;2023-03-24T11:56:58;19.50;99.90
21759;DHT22;11041;50.854;20.580;2023-03-24T12:05:22;19.70;99.90
21759;DHT22;11041;50.854;20.580;2023-03-24T12:14:01;19.60;99.90
21759;DHT22;11041;50.854;20.580;2023-03-24T12:17:26;19.50;99.90
21759;DHT22;11041;50.854;20.580;2023-03-24T12:26:06;19.20;99.90
21759;DHT22;11041;50.854;20.580;2023-03-24T12:28:50;19.20;99.90
21759;DHT22;11041;50.854;20.580;2023-03-24T12:31:41;19.20;99.90
21759;DHT22;11041;50.854;20.580;2023-03-24T12:41:11;19.00;99.90
21759;DHT22;11041;50.854;20.580;2023-03-24T12:44:27;18.90;99.90
21759;DHT22;11041;50.854;20.580;2023-03-24T12:50:56;18.90;99.90
21759;DHT22;11041;50.854;20.580;2023-03-24T12:56:38;18.90;99.90
21759;DHT22;11041;50.854;20.580;2023-03-24T12:59:21;18.80;99.90
21759;DHT22;11041;50.854;20.580;2023-03-24T13:05:02;18.90;99.90
21759;DHT22;11041;50.854;20.580;2023-03-24T13:07:35;18.90;99.90
21759;DHT22;11041;50.854;20.580;2023-03-24T13:10:17;19.00;99.90
21759;DHT22;11041;50.854;20.580;2023-03-24T13:13:16;19.10;99.90
21759;DHT22;11041;50.854;20.580;2023-03-24T13:15:53;19.20;99.90
21759;DHT22;11041;50.854;20.580;2023-03-24T13:21:12;19.50;99.90
21759;DHT22;11041;50.854;20.580;2023-03-24T13:24:07;19.60;99.90
21759;DHT22;11041;50.854;20.580;2023-03-24T13:26:40;19.60;99.90
21759;DHT22;11041;50.854;20.580;2023-03-24T13:33:19;20.10;99.90
21759;DHT22;11041;50.854;20.580;2023-03-24T13:38:51;20.30;99.90
21759;DHT22;11041;50.854;20.580;2023-03-24T13:41:22;20.30;99.90
21759;DHT22;11041;50.854;20.580;2023-03-24T13:44:02;20.30;99.90
21759;DHT22;11041;50.854;20.580;2023-03-24T13:46:37;20.20;99.90
21759;DHT22;11041;50.854;20.580;2023-03-24T13:49:11;20.20;99.90
21759;DHT22;11041;50.854;20.580;2023-03-24T13:51:43;20.20;99.90
21759;DHT22;11041;50.854;20.580;2023-03-24T13:54:20;20.20;99.90
21759;DHT22;11041;50.854;20.580;2023-03-24T13:56:54;20.20;99.90
21759;DHT22;11041;50.854;20.580;2023-03-24T14:02:40;20.10;99.90
21759;DHT22;11041;50.854;20.580;2023-03-24T14:05:54;20.10;99.90
21759;DHT22;11041;50.854;20.580;2023-03-24T14:09:00;20.00;99.90
21759;DHT22;11041;50.854;20.580;2023-03-24T14:14:09;20.00;99.90
21759;DHT22;11041;50.854;20.580;2023-03-24T14:19:31;19.80;99.90
21759;DHT22;11041;50.854;20.580;2023-03-24T14:24:43;19.70;99.90
21759;DHT22;11041;50.854;20.580;2023-03-24T14:27:32;19.70;99.90
21759;DHT22;11041;50.854;20.580;2023-03-24T14:32:44;19.50;99.90
21759;DHT22;11041;50.854;20.580;2023-03-24T14:40:45;19.40;99.90
21759;DHT22;11041;50.854;20.580;2023-03-24T14:56:50;19.00;99.90
21759;DHT22;11041;50.854;20.580;2023-03-24T15:02:36;18.80;99.90
21759;DHT22;11041;50.854;20.580;2023-03-24T15:08:21;18.60;99.90
21759;DHT22;11041;50.854;20.580;2023-03-24T15:11:06;18.50;99.90
21759;DHT22;11041;50.854;20.580;2023-03-24T15:18:59;18.20;99.90
21759;DHT22;11041;50.854;20.580;2023-03-24T15:21:38;18.20;99.90
21759;DHT22;11041;50.854;20.580;2023-03-24T15:26:49;18.10;99.90
21759;DHT22;11041;50.854;20.580;2023-03-24T15:29:29;18.10;99.90
21759;DHT22;11041;50.854;20.580;2023-03-24T15:32:28;18.00;99.90
21759;DHT22;11041;50.854;20.580;2023-03-24T15:35:05;17.90;99.90
21759;DHT22;11041;50.854;20.580;2023-03-24T15:37:35;17.90;99.90
21759;DHT22;11041;50.854;20.580;2023-03-24T15:42:58;17.90;99.90
21759;DHT22;11041;50.854;20.580;2023-03-24T15:45:33;17.90;99.90
21759;DHT22;11041;50.854;20.580;2023-03-24T15:48:16;17.80;99.90
21759;DHT22;11041;50.854;20.580;2023-03-24T15:51:04;17.90;99.90
21759;DHT22;11041;50.854;20.580;2023-03-24T15:56:29;17.80;99.90
21759;DHT22;11041;50.854;20.580;2023-03-24T16:01:29;17.70;99.90
21759;DHT22;11041;50.854;20.580;2023-03-24T16:03:56;17.70;99.90
21759;DHT22;11041;50.854;20.580;2023-03-24T16:06:33;17.70;99.90
21759;DHT22;11041;50.854;20.580;2023-03-24T16:09:11;17.80;99.90
21759;DHT22;11041;50.854;20.580;2023-03-24T16:11:40;17.80;99.90
21759;DHT22;11041;50.854;20.580;2023-03-24T16:14:24;17.60;99.90
21759;DHT22;11041;50.854;20.580;2023-03-24T16:16:54;17.60;99.90
21759;DHT22;11041;50.854;20.580;2023-03-24T16:19:22;17.50;99.90
21759;DHT22;11041;50.854;20.580;2023-03-24T16:21:49;17.50;99.90
21759;DHT22;11041;50.854;20.580;2023-03-24T16:24:16;17.50;99.90
21759;DHT22;11041;50.854;20.580;2023-03-24T16:26:42;17.40;99.90
21759;DHT22;11041;50.854;20.580;2023-03-24T16:29:22;17.40;99.90
21759;DHT22;11041;50.854;20.580;2023-03-24T16:31:51;17.30;99.90
21759;DHT22;11041;50.854;20.580;2023-03-24T16:34:21;17.20;99.90
21759;DHT22;11041;50.854;20.580;2023-03-24T16:36:50;17.10;99.90
21759;DHT22;11041;50.854;20.580;2023-03-24T16:39:20;16.90;99.90
21759;DHT22;11041;50.854;20.580;2023-03-24T16:41:49;16.90;99.90
21759;DHT22;11041;50.854;20.580;2023-03-24T16:44:16;16.80;99.90
21759;DHT22;11041;50.854;20.580;2023-03-24T16:46:44;16.80;99.90
21759;DHT22;11041;50.854;20.580;2023-03-24T16:49:14;16.80;99.90
21759;DHT22;11041;50.854;20.580;2023-03-24T16:51:43;16.70;99.90
21759;DHT22;11041;50.854;20.580;2023-03-24T16:54:10;16.60;99.90
21759;DHT22;11041;50.854;20.580;2023-03-24T16:56:37;16.60;99.90
21759;DHT22;11041;50.854;20.580;2023-03-24T16:59:05;16.40;99.90
21759;DHT22;11041;50.854;20.580;2023-03-24T17:01:40;16.40;99.90
21759;DHT22;11041;50.854;20.580;2023-03-24T17:04:18;16.40;99.90
21759;DHT22;11041;50.854;20.580;2023-03-24T17:06:49;16.30;99.90
21759;DHT22;11041;50.854;20.580;2023-03-24T17:09:20;16.30;99.90
21759;DHT22;11041;50.854;20.580;2023-03-24T17:11:50;16.20;99.90
21759;DHT22;11041;50.854;20.580;2023-03-24T17:14:27;16.20;99.90
21759;DHT22;11041;50.854;20.580;2023-03-24T17:16:56;16.30;99.90
21759;DHT22;11041;50.854;20.580;2023-03-24T17:19:22;16.60;99.90
21759;DHT22;11041;50.854;20.580;2023-03-24T17:21:52;16.70;99.90
21759;DHT22;11041;50.854;20.580;2023-03-24T17:24:30;16.90;99.90
21759;DHT22;11041;50.854;20.580;2023-03-24T17:27:01;16.80;99.90
21759;DHT22;11041;50.854;20.580;2023-03-24T17:29:28;16.90;99.90
21759;DHT22;11041;50.854;20.580;2023-03-24T17:31:54;16.90;99.90
21759;DHT22;11041;50.854;20.580;2023-03-24T17:34:21;16.90;99.90
21759;DHT22;11041;50.854;20.580;2023-03-24T17:36:48;16.80;99.90
21759;DHT22;11041;50.854;20.580;2023-03-24T17:39:16;16.70;99.90
21759;DHT22;11041;50.854;20.580;2023-03-24T17:41:44;16.80;99.90
21759;DHT22;11041;50.854;20.580;2023-03-24T17:44:11;16.80;99.90
21759;DHT22;11041;50.854;20.580;2023-03-24T17:46:38;17.00;99.90
21759;DHT22;11041;50.854;20.580;2023-03-24T17:49:05;16.90;99.90
21759;DHT22;11041;50.854;20.580;2023-03-24T17:51:32;16.90;99.90
21759;DHT22;11041;50.854;20.580;2023-03-24T17:53:58;16.80;99.90
21759;DHT22;11041;50.854;20.580;2023-03-24T17:56:25;16.90;99.90
21759;DHT22;11041;50.854;20.580;2023-03-24T17:58:51;16.90;99.90
21759;DHT22;11041;50.854;20.580;2023-03-24T18:01:19;16.90;99.90
21759;DHT22;11041;50.854;20.580;2023-03-24T18:03:46;16.80;99.90
21759;DHT22;11041;50.854;20.580;2023-03-24T18:06:14;16.70;99.90
21759;DHT22;11041;50.854;20.580;2023-03-24T18:08:44;16.70;99.90
21759;DHT22;11041;50.854;20.580;2023-03-24T18:11:13;16.70;99.90
21759;DHT22;11041;50.854;20.580;2023-03-24T18:13:41;16.60;99.90
21759;DHT22;11041;50.854;20.580;2023-03-24T18:16:09;16.40;99.90
21759;DHT22;11041;50.854;20.580;2023-03-24T18:18:37;16.40;99.90
21759;DHT22;11041;50.854;20.580;2023-03-24T18:21:04;16.30;99.90
21759;DHT22;11041;50.854;20.580;2023-03-24T18:23:35;16.20;99.90
21759;DHT22;11041;50.854;20.580;2023-03-24T18:26:05;16.10;99.90
21759;DHT22;11041;50.854;20.580;2023-03-24T18:28:34;16.00;99.90
21759;DHT22;11041;50.854;20.580;2023-03-24T18:31:11;16.00;99.90
21759;DHT22;11041;50.854;20.580;2023-03-24T18:33:42;15.90;99.90
21759;DHT22;11041;50.854;20.580;2023-03-24T18:36:14;15.80;99.90
21759;DHT22;11041;50.854;20.580;2023-03-24T18:38:47;15.80;99.90
21759;DHT22;11041;50.854;20.580;2023-03-24T18:41:14;15.80;99.90
21759;DHT22;11041;50.854;20.580;2023-03-24T18:43:43;15.90;99.90
21759;DHT22;11041;50.854;20.580;2023-03-24T18:46:12;15.90;99.90
21759;DHT22;11041;50.854;20.580;2023-03-24T18:48:40;15.90;99.90
21759;DHT22;11041;50.854;20.580;2023-03-24T18:51:09;15.90;99.90
21759;DHT22;11041;50.854;20.580;2023-03-24T18:53:37;15.90;99.90
21759;DHT22;11041;50.854;20.580;2023-03-24T18:56:05;15.70;99.90
21759;DHT22;11041;50.854;20.580;2023-03-24T18:58:33;15.90;99.90
21759;DHT22;11041;50.854;20.580;2023-03-24T19:01:08;15.90;99.90